Stelios Filiagos — SVA3636 — position and weather

sailwx.info

Track history (hours):
 
Tides and Currents Weather Stations Pressure Air Temp Water Temp Dewpoint Dewpoint Depression Visibility Wind Speed Wind Dir Waves Ship Positions

Stelios Filiagos

Last reported at 2017-Sep-19 13:31 UTC. Time now 2017-Sep-19 13:37 UTC.
Position N 40°49' E 024°42'.

Length 106 m; draft 2.6 m.

Type: Passenger vessel. MMSI: 239630600.

Date/timePositionNaut miles runAvg speedWind from/ knotsBaromVisibWave heightAir tempDewpointWater temp
2017-Sep-19 13:31N 40°49' E 024°42'2 3.6
2017-Sep-19 13:00N 40°47' E 024°42'0 0.0
2017-Sep-19 12:31N 40°47' E 024°42'1 2.7
2017-Sep-19 12:01N 40°48' E 024°42'3 6.6
2017-Sep-19 11:31N 40°51' E 024°42'0 0.0
2017-Sep-19 11:01N 40°51' E 024°42'3 5.4
2017-Sep-19 10:30N 40°49' E 024°42'2 4.0
2017-Sep-19 10:00N 40°47' E 024°42'4 7.4
2017-Sep-19 09:30N 40°50' E 024°41'1 2.6
2017-Sep-19 09:01N 40°51' E 024°42'1 1.8
2017-Sep-19 08:31N 40°51' E 024°41'4 8.5
2017-Sep-19 08:01N 40°47' E 024°42'1 2.7
2017-Sep-19 07:30N 40°48' E 024°42'3 6.7
2017-Sep-19 07:00N 40°51' E 024°42'0 0.1
2017-Sep-19 06:30N 40°51' E 024°42'3 5.1
2017-Sep-19 06:01N 40°49' E 024°42'2 4.3
2017-Sep-19 05:30N 40°47' E 024°42'1 2.6
2017-Sep-19 05:00N 40°48' E 024°42'3 6.7
2017-Sep-19 04:30N 40°51' E 024°42'0 0.0
2017-Sep-19 04:00N 40°51' E 024°42'0 0.0
2017-Sep-18 14:59N 40°51' E 024°42'1 1.9
2017-Sep-18 14:30N 40°51' E 024°41'4 8.8
2017-Sep-18 14:00N 40°47' E 024°42'0 0.0
2017-Sep-18 13:30N 40°47' E 024°42'0 0.0
2017-Sep-18 13:00N 40°47' E 024°42'0 0.0
2017-Sep-18 12:30N 40°47' E 024°42'0 0.0
2017-Sep-18 12:00N 40°47' E 024°42'0 0.0
2017-Sep-18 11:30N 40°47' E 024°42'0 0.0
2017-Sep-18 11:00N 40°47' E 024°42'4 7.2
2017-Sep-18 10:30N 40°50' E 024°41'1 2.7
2017-Sep-18 10:00N 40°51' E 024°42'1 1.7
2017-Sep-18 09:30N 40°51' E 024°41'4 8.8
2017-Sep-18 09:00N 40°47' E 024°42'0 0.0
2017-Sep-18 08:30N 40°47' E 024°42'0 0.0
2017-Sep-18 08:00N 40°47' E 024°42'0 0.0
2017-Sep-18 07:30N 40°47' E 024°42'0 0.0
2017-Sep-18 07:00N 40°47' E 024°42'0 0.0
2017-Sep-18 06:30N 40°47' E 024°42'4 7.3
2017-Sep-18 06:00N 40°50' E 024°41'1 2.5
2017-Sep-18 05:30N 40°51' E 024°42'1 2.1
2017-Sep-18 05:00N 40°51' E 024°41'4 7.9
2017-Sep-18 04:30N 40°47' E 024°42'0 0.5
2017-Sep-18 04:00N 40°47' E 024°42'2 3.0
2017-Sep-18 03:30N 40°49' E 024°42'3 5.9
2017-Sep-18 03:00N 40°51' E 024°42'0 0.0
2017-Sep-17 20:44N 40°51' E 024°42'1 4.9
2017-Sep-17 20:30N 40°51' E 024°41'4 8.8
2017-Sep-17 20:00N 40°47' E 024°42'0 0.0
2017-Sep-17 19:31N 40°47' E 024°42'0 0.0
2017-Sep-17 19:00N 40°47' E 024°42'0 0.0
2017-Sep-17 18:30N 40°47' E 024°42'0 0.0
2017-Sep-17 18:00N 40°47' E 024°42'0 0.1
2017-Sep-17 17:31N 40°47' E 024°42'1 2.5
2017-Sep-17 17:00N 40°48' E 024°42'3 6.9
2017-Sep-17 16:30N 40°51' E 024°42'0 0.0
2017-Sep-17 16:01N 40°51' E 024°42'3 5.5
2017-Sep-17 15:30N 40°49' E 024°42'2 3.9
2017-Sep-17 15:01N 40°47' E 024°42'0 0.0
2017-Sep-17 14:30N 40°47' E 024°42'1 2.4
2017-Sep-17 14:00N 40°48' E 024°42'3 6.9
2017-Sep-17 13:30N 40°51' E 024°42'0 0.1
2017-Sep-17 13:01N 40°51' E 024°42'3 5.5
2017-Sep-17 12:30N 40°49' E 024°42'2 3.9
2017-Sep-17 12:00N 40°47' E 024°42'1 2.7
2017-Sep-17 11:30N 40°48' E 024°42'3 6.5
2017-Sep-17 11:00N 40°51' E 024°42'0 0.0
2017-Sep-17 10:30N 40°51' E 024°42'3 5.4
2017-Sep-17 10:00N 40°49' E 024°41'2 4.2
2017-Sep-17 09:30N 40°47' E 024°42'1 2.3
2017-Sep-17 09:00N 40°48' E 024°42'3 7.0
2017-Sep-17 08:30N 40°51' E 024°42'0 0.0
2017-Sep-17 08:01N 40°51' E 024°42'3 5.4
2017-Sep-17 07:30N 40°49' E 024°42'2 4.0
2017-Sep-17 07:00N 40°47' E 024°42'1 3.0
2017-Sep-17 06:30N 40°48' E 024°42'3 6.3
2017-Sep-17 06:00N 40°51' E 024°42'0 0.0
2017-Sep-17 05:30N 40°51' E 024°42'3 5.3
2017-Sep-17 05:00N 40°49' E 024°42'2 4.2
2017-Sep-17 04:30N 40°47' E 024°42'1 2.3
2017-Sep-17 04:00N 40°48' E 024°42'4 7.0
2017-Sep-17 03:30N 40°51' E 024°42'0 0.0
2017-Sep-17 03:01N 40°51' E 024°42'3 5.6
2017-Sep-17 02:30N 40°49' E 024°42'2 3.7
2017-Sep-17 02:00N 40°47' E 024°42'0 0.0
2017-Sep-16 20:42N 40°47' E 024°42'1 7.8
2017-Sep-16 20:30N 40°48' E 024°42'3 6.4
2017-Sep-16 20:00N 40°51' E 024°42'0 0.0
2017-Sep-16 19:30N 40°51' E 024°42'3 5.2
2017-Sep-16 19:00N 40°49' E 024°41'2 4.3
2017-Sep-16 18:30N 40°47' E 024°42'0 0.0
2017-Sep-16 18:00N 40°47' E 024°42'0 0.1
2017-Sep-16 17:30N 40°47' E 024°42'0 0.0
2017-Sep-16 17:00N 40°47' E 024°42'0 0.0
2017-Sep-16 16:30N 40°47' E 024°42'3 6.9
2017-Sep-16 16:00N 40°50' E 024°41'1 2.9
2017-Sep-16 15:30N 40°51' E 024°42'1 1.8
2017-Sep-16 15:00N 40°51' E 024°41'5 9.1
2017-Sep-16 14:30N 40°47' E 024°42'0 0.0
2017-Sep-16 14:00N 40°47' E 024°42'1 2.5
2017-Sep-16 13:30N 40°48' E 024°42'3 6.8
2017-Sep-16 13:00N 40°51' E 024°42'0 0.1
2017-Sep-16 12:30N 40°51' E 024°42'3 5.5
2017-Sep-16 12:00N 40°49' E 024°42'2 3.9
2017-Sep-16 11:30N 40°47' E 024°42'2 3.2
2017-Sep-16 11:00N 40°48' E 024°42'3 6.1
2017-Sep-16 10:30N 40°51' E 024°42'0 0.0
2017-Sep-16 10:00N 40°51' E 024°42'3 6.1
2017-Sep-16 09:30N 40°48' E 024°42'2 3.2
2017-Sep-16 09:00N 40°47' E 024°42'1 2.7
2017-Sep-16 08:30N 40°48' E 024°42'3 6.6
2017-Sep-16 08:00N 40°51' E 024°42'0 0.1
2017-Sep-16 07:30N 40°51' E 024°42'3 5.3
2017-Sep-16 07:00N 40°49' E 024°42'2 4.1
2017-Sep-16 06:30N 40°47' E 024°42'1 2.3
2017-Sep-16 06:00N 40°48' E 024°42'4 7.1
2017-Sep-16 05:30N 40°51' E 024°42'0 0.0
2017-Sep-16 05:00N 40°51' E 024°42'3 5.1
2017-Sep-16 04:30N 40°49' E 024°42'2 4.4
2017-Sep-16 04:00N 40°47' E 024°42'0 0.0
2017-Sep-16 03:30N 40°47' E 024°42'4 8.7
2017-Sep-16 03:00N 40°51' E 024°41'1 2.0
2017-Sep-16 02:30N 40°51' E 024°42'0 0.0
2017-Sep-15 18:14N 40°51' E 024°42'1 4.6
2017-Sep-15 18:00N 40°51' E 024°41'4 8.9
2017-Sep-15 17:30N 40°47' E 024°42'0 0.0
2017-Sep-15 17:00N 40°47' E 024°42'0 0.0
2017-Sep-15 16:30N 40°47' E 024°42'0 0.0
2017-Sep-15 16:00N 40°47' E 024°42'1 2.4
2017-Sep-15 15:30N 40°48' E 024°42'3 6.9
2017-Sep-15 15:00N 40°51' E 024°42'0 0.0
2017-Sep-15 14:30N 40°51' E 024°42'3 5.3
2017-Sep-15 14:00N 40°49' E 024°42'2 4.1
2017-Sep-15 13:30N 40°47' E 024°42'1 2.5
2017-Sep-15 13:00N 40°48' E 024°42'3 6.8
2017-Sep-15 12:30N 40°51' E 024°42'0 0.0
2017-Sep-15 12:00N 40°51' E 024°42'3 5.3
2017-Sep-15 11:30N 40°49' E 024°41'2 4.4
2017-Sep-15 11:00N 40°47' E 024°42'1 2.5
2017-Sep-15 10:30N 40°48' E 024°42'3 6.8
2017-Sep-15 10:00N 40°51' E 024°42'0 0.1
2017-Sep-15 09:30N 40°51' E 024°42'3 5.4
2017-Sep-15 09:00N 40°49' E 024°42'2 4.1
2017-Sep-15 08:30N 40°47' E 024°42'1 2.4
2017-Sep-15 08:00N 40°48' E 024°42'3 6.9
2017-Sep-15 07:30N 40°51' E 024°42'0 0.0
2017-Sep-15 07:00N 40°51' E 024°42'3 5.5
2017-Sep-15 06:30N 40°49' E 024°42'2 3.8
2017-Sep-15 06:00N 40°47' E 024°42'1 2.9
2017-Sep-15 05:30N 40°48' E 024°42'3 6.5
2017-Sep-15 05:00N 40°51' E 024°42'0 0.0
2017-Sep-15 04:30N 40°51' E 024°42'3 5.2
2017-Sep-15 04:00N 40°49' E 024°42'2 4.2
2017-Sep-15 03:30N 40°47' E 024°42'0 0.0
2017-Sep-15 03:00N 40°47' E 024°42'4 8.3
2017-Sep-15 02:30N 40°51' E 024°41'1 2.4
2017-Sep-15 02:00N 40°51' E 024°42'0 0.1
2017-Sep-15 01:30N 40°51' E 024°42'0 0.0
2017-Sep-14 20:31N 40°51' E 024°42'0 0.0
2017-Sep-14 20:30N 40°51' E 024°42'0 0.1
2017-Sep-14 20:00N 40°51' E 024°42'3 5.5
2017-Sep-14 19:30N 40°49' E 024°42'0 0.3
2017-Sep-14 19:00N 40°49' E 024°42'3 5.9
2017-Sep-14 18:30N 40°51' E 024°42'0 0.0
2017-Sep-14 18:00N 40°51' E 024°42'0 0.0
2017-Sep-14 17:30N 40°51' E 024°42'3 5.3
2017-Sep-14 17:00N 40°49' E 024°41'2 4.2
2017-Sep-14 16:30N 40°47' E 024°42'0 0.0
2017-Sep-14 16:00N 40°47' E 024°42'0 0.0
2017-Sep-14 15:30N 40°47' E 024°42'1 2.4
2017-Sep-14 15:00N 40°48' E 024°42'3 6.9
2017-Sep-14 14:30N 40°51' E 024°42'0 0.0
2017-Sep-14 14:00N 40°51' E 024°42'3 5.4
2017-Sep-14 13:30N 40°49' E 024°41'2 4.3
2017-Sep-14 13:00N 40°47' E 024°42'1 2.5
2017-Sep-14 12:30N 40°48' E 024°42'3 6.8
2017-Sep-14 12:00N 40°51' E 024°42'0 0.0
2017-Sep-14 11:30N 40°51' E 024°42'3 5.5
2017-Sep-14 11:00N 40°49' E 024°41'2 4.2
2017-Sep-14 10:30N 40°47' E 024°42'1 2.6
2017-Sep-14 10:00N 40°48' E 024°42'3 6.8
2017-Sep-14 09:30N 40°51' E 024°42'0 0.0
2017-Sep-14 09:00N 40°51' E 024°42'3 6.1
2017-Sep-14 08:30N 40°48' E 024°42'2 3.3
2017-Sep-14 08:00N 40°47' E 024°42'1 2.3
2017-Sep-14 07:30N 40°48' E 024°42'4 7.1
2017-Sep-14 07:00N 40°51' E 024°42'0 0.1
2017-Sep-14 06:30N 40°51' E 024°42'3 5.3
2017-Sep-14 06:00N 40°49' E 024°42'2 4.2
2017-Sep-14 05:30N 40°47' E 024°42'2 3.1
2017-Sep-14 05:00N 40°48' E 024°42'3 6.3
2017-Sep-14 04:30N 40°51' E 024°42'0 0.0
2017-Sep-14 04:00N 40°51' E 024°42'3 5.4
2017-Sep-14 03:30N 40°49' E 024°42'2 4.0
2017-Sep-14 03:00N 40°47' E 024°42'0 0.0
2017-Sep-14 02:30N 40°47' E 024°42'0 0.0
2017-Sep-13 17:56N 40°47' E 024°42'4 8.6
2017-Sep-13 17:30N 40°50' E 024°41'1 2.5
2017-Sep-13 17:00N 40°51' E 024°42'1 1.9
2017-Sep-13 16:30N 40°51' E 024°41'5 9.0
2017-Sep-13 16:00N 40°47' E 024°42'0 0.0
2017-Sep-13 15:30N 40°47' E 024°42'0 0.0
2017-Sep-13 15:00N 40°47' E 024°42'1 2.5
2017-Sep-13 14:30N 40°48' E 024°42'3 6.8
2017-Sep-13 14:00N 40°51' E 024°42'0 0.0
2017-Sep-13 13:30N 40°51' E 024°42'3 5.2
2017-Sep-13 13:00N 40°49' E 024°42'2 4.3
2017-Sep-13 12:30N 40°47' E 024°42'1 2.9
2017-Sep-13 12:00N 40°48' E 024°42'3 6.5
2017-Sep-13 11:30N 40°51' E 024°42'0 0.0
2017-Sep-13 11:00N 40°51' E 024°42'3 5.4
2017-Sep-13 10:30N 40°49' E 024°42'2 4.0
2017-Sep-13 10:00N 40°47' E 024°42'2 3.2
2017-Sep-13 09:30N 40°48' E 024°42'3 6.1
2017-Sep-13 09:00N 40°51' E 024°42'0 0.1
2017-Sep-13 08:30N 40°51' E 024°42'3 5.4
2017-Sep-13 08:00N 40°49' E 024°42'2 4.0
2017-Sep-13 07:30N 40°47' E 024°42'2 3.3
2017-Sep-13 07:00N 40°48' E 024°42'3 6.1
2017-Sep-13 06:30N 40°51' E 024°42'0 0.0
2017-Sep-13 06:00N 40°51' E 024°42'2 4.9
2017-Sep-13 05:30N 40°49' E 024°42'2 4.5
2017-Sep-13 05:00N 40°47' E 024°42'1 2.7
2017-Sep-13 04:30N 40°48' E 024°42'3 6.6
2017-Sep-13 04:00N 40°51' E 024°42'0 0.0
2017-Sep-13 03:30N 40°51' E 024°42'0 0.0
2017-Sep-12 20:52N 40°51' E 024°42'1 3.1
2017-Sep-12 20:30N 40°51' E 024°41'4 8.4
2017-Sep-12 20:01N 40°47' E 024°42'0 0.0
2017-Sep-12 19:30N 40°47' E 024°42'0 0.0
2017-Sep-12 19:01N 40°47' E 024°42'0 0.0
2017-Sep-12 18:30N 40°47' E 024°42'0 0.0
2017-Sep-12 18:00N 40°47' E 024°42'0 0.0
2017-Sep-12 17:31N 40°47' E 024°42'1 2.5
2017-Sep-12 17:01N 40°48' E 024°42'3 6.8
2017-Sep-12 16:31N 40°51' E 024°42'0 0.0
2017-Sep-12 16:00N 40°51' E 024°42'3 5.0
2017-Sep-12 15:30N 40°49' E 024°42'2 4.4
2017-Sep-12 15:00N 40°47' E 024°42'0 0.0
2017-Sep-12 14:31N 40°47' E 024°42'1 2.3
2017-Sep-12 14:01N 40°48' E 024°42'4 7.0
2017-Sep-12 13:30N 40°51' E 024°42'0 0.0
2017-Sep-12 13:01N 40°51' E 024°42'3 5.5
2017-Sep-12 12:30N 40°49' E 024°42'2 4.0
2017-Sep-12 12:00N 40°47' E 024°42'1 2.6
2017-Sep-12 11:30N 40°48' E 024°42'3 6.8
2017-Sep-12 11:01N 40°51' E 024°42'0 0.0
2017-Sep-12 10:30N 40°51' E 024°42'3 5.4
2017-Sep-12 10:00N 40°49' E 024°42'2 4.1
2017-Sep-12 09:31N 40°47' E 024°42'2 3.1
2017-Sep-12 09:01N 40°48' E 024°41'3 6.6
2017-Sep-12 08:30N 40°51' E 024°42'0 0.1
2017-Sep-12 08:00N 40°51' E 024°42'3 6.6
2017-Sep-12 07:30N 40°48' E 024°42'1 2.8
2017-Sep-12 07:00N 40°47' E 024°42'2 3.0
2017-Sep-12 06:30N 40°48' E 024°41'3 6.6
2017-Sep-12 06:01N 40°51' E 024°42'0 0.0
2017-Sep-12 05:31N 40°51' E 024°42'2 4.9
2017-Sep-12 05:01N 40°49' E 024°42'2 4.5
2017-Sep-12 04:31N 40°47' E 024°42'1 2.7
2017-Sep-12 04:01N 40°48' E 024°42'3 6.6
2017-Sep-12 03:30N 40°51' E 024°42'0 0.0
2017-Sep-12 03:00N 40°51' E 024°42'3 5.4
2017-Sep-12 02:31N 40°49' E 024°42'2 4.0
2017-Sep-12 02:01N 40°47' E 024°42'0 0.0
2017-Sep-11 20:46N 40°47' E 024°42'2 7.3
2017-Sep-11 20:30N 40°49' E 024°42'3 5.5
2017-Sep-11 20:00N 40°51' E 024°42'0 0.0
2017-Sep-11 19:30N 40°51' E 024°42'3 5.2
2017-Sep-11 19:00N 40°49' E 024°42'2 4.3
2017-Sep-11 18:30N 40°47' E 024°42'0 0.0
2017-Sep-11 18:00N 40°47' E 024°42'0 0.0
2017-Sep-11 17:30N 40°47' E 024°42'0 0.0
2017-Sep-11 17:00N 40°47' E 024°42'0 0.0
2017-Sep-11 16:30N 40°47' E 024°42'4 7.6
2017-Sep-11 16:00N 40°51' E 024°41'1 2.5
2017-Sep-11 15:30N 40°51' E 024°42'1 1.8
2017-Sep-11 15:00N 40°51' E 024°41'4 9.0
2017-Sep-11 14:30N 40°47' E 024°42'0 0.0
2017-Sep-11 14:00N 40°47' E 024°42'1 2.3
2017-Sep-11 13:30N 40°48' E 024°42'3 7.0
2017-Sep-11 13:00N 40°51' E 024°42'0 0.0
2017-Sep-11 12:30N 40°51' E 024°42'3 5.4
2017-Sep-11 12:00N 40°49' E 024°42'2 4.1
2017-Sep-11 11:30N 40°47' E 024°42'1 2.3
2017-Sep-11 11:00N 40°48' E 024°42'3 7.0
2017-Sep-11 10:30N 40°51' E 024°42'0 0.0
2017-Sep-11 10:00N 40°51' E 024°42'3 5.6
2017-Sep-11 09:30N 40°49' E 024°42'2 3.8
2017-Sep-11 09:00N 40°47' E 024°42'1 2.3
2017-Sep-11 08:30N 40°48' E 024°42'3 7.0
2017-Sep-11 08:00N 40°51' E 024°42'0 0.0
2017-Sep-11 07:30N 40°51' E 024°42'3 6.3
2017-Sep-11 07:00N 40°48' E 024°42'2 3.1
2017-Sep-11 06:30N 40°47' E 024°42'1 2.5
2017-Sep-11 06:00N 40°48' E 024°42'3 6.8
2017-Sep-11 05:30N 40°51' E 024°42'0 0.0
2017-Sep-11 05:00N 40°51' E 024°42'3 5.4
2017-Sep-11 04:30N 40°49' E 024°42'2 4.0
2017-Sep-11 04:00N 40°47' E 024°42'0 0.0
2017-Sep-11 03:30N 40°47' E 024°42'4 8.9
2017-Sep-11 03:00N 40°51' E 024°41'1 2.3
2017-Sep-11 02:30N 40°51' E 024°42'2 4.6
2017-Sep-11 02:00N 40°49' E 024°41'1 1.6
2017-Sep-11 01:30N 40°48' E 024°42'3 6.0
2017-Sep-11 01:00N 40°51' E 024°42'0 0.0
2017-Sep-10 18:27N 40°51' E 024°42'1 2.3
2017-Sep-10 18:00N 40°51' E 024°41'5 9.2
2017-Sep-10 17:30N 40°47' E 024°42'0 0.0
2017-Sep-10 17:00N 40°47' E 024°42'0 0.0
2017-Sep-10 16:30N 40°47' E 024°42'0 0.0
2017-Sep-10 16:00N 40°47' E 024°42'1 2.2
2017-Sep-10 15:30N 40°48' E 024°42'4 7.1
2017-Sep-10 15:00N 40°51' E 024°42'3 2.6
2017-Sep-10 14:00N 40°49' E 024°42'2 4.0
2017-Sep-10 13:29N 40°47' E 024°42'1 2.7
2017-Sep-10 13:00N 40°48' E 024°42'3 6.8
2017-Sep-10 12:30N 40°51' E 024°42'0 0.0
2017-Sep-10 12:00N 40°51' E 024°42'3 5.4
2017-Sep-10 11:30N 40°49' E 024°42'2 4.0
2017-Sep-10 11:00N 40°47' E 024°42'1 2.3
2017-Sep-10 10:30N 40°48' E 024°42'4 7.0
2017-Sep-10 10:00N 40°51' E 024°42'0 0.0
2017-Sep-10 09:30N 40°51' E 024°42'3 5.0
2017-Sep-10 09:00N 40°49' E 024°42'2 4.5
2017-Sep-10 08:30N 40°47' E 024°42'1 2.7
2017-Sep-10 08:00N 40°48' E 024°42'3 6.6
2017-Sep-10 07:30N 40°51' E 024°42'0 0.1
2017-Sep-10 07:00N 40°51' E 024°42'3 6.7
2017-Sep-10 06:30N 40°48' E 024°42'1 2.6
2017-Sep-10 06:00N 40°47' E 024°42'1 2.6
2017-Sep-10 05:30N 40°48' E 024°42'3 6.7
2017-Sep-10 05:00N 40°51' E 024°42'0 0.0
2017-Sep-10 04:30N 40°51' E 024°42'3 5.6
2017-Sep-10 04:00N 40°49' E 024°42'2 3.7
2017-Sep-10 03:30N 40°47' E 024°42'0 0.0
2017-Sep-09 19:34N 40°47' E 024°42'0 0.0
2017-Sep-09 19:30N 40°47' E 024°42'1 2.8
2017-Sep-09 19:00N 40°48' E 024°42'3 6.5
2017-Sep-09 18:30N 40°51' E 024°42'0 0.0
2017-Sep-09 18:00N 40°51' E 024°42'0 0.0
2017-Sep-09 17:30N 40°51' E 024°42'3 5.1
2017-Sep-09 17:00N 40°49' E 024°42'2 4.3
2017-Sep-09 16:30N 40°47' E 024°42'0 0.0
2017-Sep-09 16:00N 40°47' E 024°42'0 0.0
2017-Sep-09 15:30N 40°47' E 024°42'1 2.9
2017-Sep-09 15:00N 40°48' E 024°42'3 6.4
2017-Sep-09 14:30N 40°51' E 024°42'0 0.0
2017-Sep-09 14:00N 40°51' E 024°42'  
Track history (hours):
 
Tides and Currents Weather Stations Pressure Air Temp Water Temp Dewpoint Dewpoint Depression Visibility Wind Speed Wind Dir Waves Ship Positions

Stelios Filiagos

Last reported at 2017-Sep-19 13:31 UTC. Time now 2017-Sep-19 13:37 UTC.
Position N 40°49' E 024°42'.

Length 106 m; draft 2.6 m.

Type: Passenger vessel. MMSI: 239630600.

Date/timePositionNaut miles runAvg speedWind from/ knotsBaromVisibWave heightAir tempDewpointWater temp
2017-Sep-19 13:31N 40°49' E 024°42'2 3.6
2017-Sep-19 13:00N 40°47' E 024°42'0 0.0
2017-Sep-19 12:31N 40°47' E 024°42'1 2.7
2017-Sep-19 12:01N 40°48' E 024°42'3 6.6
2017-Sep-19 11:31N 40°51' E 024°42'0 0.0
2017-Sep-19 11:01N 40°51' E 024°42'3 5.4
2017-Sep-19 10:30N 40°49' E 024°42'2 4.0
2017-Sep-19 10:00N 40°47' E 024°42'4 7.4
2017-Sep-19 09:30N 40°50' E 024°41'1 2.6
2017-Sep-19 09:01N 40°51' E 024°42'1 1.8
2017-Sep-19 08:31N 40°51' E 024°41'4 8.5
2017-Sep-19 08:01N 40°47' E 024°42'1 2.7
2017-Sep-19 07:30N 40°48' E 024°42'3 6.7
2017-Sep-19 07:00N 40°51' E 024°42'0 0.1
2017-Sep-19 06:30N 40°51' E 024°42'3 5.1
2017-Sep-19 06:01N 40°49' E 024°42'2 4.3
2017-Sep-19 05:30N 40°47' E 024°42'1 2.6
2017-Sep-19 05:00N 40°48' E 024°42'3 6.7
2017-Sep-19 04:30N 40°51' E 024°42'0 0.0
2017-Sep-19 04:00N 40°51' E 024°42'0 0.0
2017-Sep-18 14:59N 40°51' E 024°42'1 1.9
2017-Sep-18 14:30N 40°51' E 024°41'4 8.8
2017-Sep-18 14:00N 40°47' E 024°42'0 0.0
2017-Sep-18 13:30N 40°47' E 024°42'0 0.0
2017-Sep-18 13:00N 40°47' E 024°42'0 0.0
2017-Sep-18 12:30N 40°47' E 024°42'0 0.0
2017-Sep-18 12:00N 40°47' E 024°42'0 0.0
2017-Sep-18 11:30N 40°47' E 024°42'0 0.0
2017-Sep-18 11:00N 40°47' E 024°42'4 7.2
2017-Sep-18 10:30N 40°50' E 024°41'1 2.7
2017-Sep-18 10:00N 40°51' E 024°42'1 1.7
2017-Sep-18 09:30N 40°51' E 024°41'4 8.8
2017-Sep-18 09:00N 40°47' E 024°42'0 0.0
2017-Sep-18 08:30N 40°47' E 024°42'0 0.0
2017-Sep-18 08:00N 40°47' E 024°42'0 0.0
2017-Sep-18 07:30N 40°47' E 024°42'0 0.0
2017-Sep-18 07:00N 40°47' E 024°42'0 0.0
2017-Sep-18 06:30N 40°47' E 024°42'4 7.3
2017-Sep-18 06:00N 40°50' E 024°41'1 2.5
2017-Sep-18 05:30N 40°51' E 024°42'1 2.1
2017-Sep-18 05:00N 40°51' E 024°41'4 7.9
2017-Sep-18 04:30N 40°47' E 024°42'0 0.5
2017-Sep-18 04:00N 40°47' E 024°42'2 3.0
2017-Sep-18 03:30N 40°49' E 024°42'3 5.9
2017-Sep-18 03:00N 40°51' E 024°42'0 0.0
2017-Sep-17 20:44N 40°51' E 024°42'1 4.9
2017-Sep-17 20:30N 40°51' E 024°41'4 8.8
2017-Sep-17 20:00N 40°47' E 024°42'0 0.0
2017-Sep-17 19:31N 40°47' E 024°42'0 0.0
2017-Sep-17 19:00N 40°47' E 024°42'0 0.0
2017-Sep-17 18:30N 40°47' E 024°42'0 0.0
2017-Sep-17 18:00N 40°47' E 024°42'0 0.1
2017-Sep-17 17:31N 40°47' E 024°42'1 2.5
2017-Sep-17 17:00N 40°48' E 024°42'3 6.9
2017-Sep-17 16:30N 40°51' E 024°42'0 0.0
2017-Sep-17 16:01N 40°51' E 024°42'3 5.5
2017-Sep-17 15:30N 40°49' E 024°42'2 3.9
2017-Sep-17 15:01N 40°47' E 024°42'0 0.0
2017-Sep-17 14:30N 40°47' E 024°42'1 2.4
2017-Sep-17 14:00N 40°48' E 024°42'3 6.9
2017-Sep-17 13:30N 40°51' E 024°42'0 0.1
2017-Sep-17 13:01N 40°51' E 024°42'3 5.5
2017-Sep-17 12:30N 40°49' E 024°42'2 3.9
2017-Sep-17 12:00N 40°47' E 024°42'1 2.7
2017-Sep-17 11:30N 40°48' E 024°42'3 6.5
2017-Sep-17 11:00N 40°51' E 024°42'0 0.0
2017-Sep-17 10:30N 40°51' E 024°42'3 5.4
2017-Sep-17 10:00N 40°49' E 024°41'2 4.2
2017-Sep-17 09:30N 40°47' E 024°42'1 2.3
2017-Sep-17 09:00N 40°48' E 024°42'3 7.0
2017-Sep-17 08:30N 40°51' E 024°42'0 0.0
2017-Sep-17 08:01N 40°51' E 024°42'3 5.4
2017-Sep-17 07:30N 40°49' E 024°42'2 4.0
2017-Sep-17 07:00N 40°47' E 024°42'1 3.0
2017-Sep-17 06:30N 40°48' E 024°42'3 6.3
2017-Sep-17 06:00N 40°51' E 024°42'0 0.0
2017-Sep-17 05:30N 40°51' E 024°42'3 5.3
2017-Sep-17 05:00N 40°49' E 024°42'2 4.2
2017-Sep-17 04:30N 40°47' E 024°42'1 2.3
2017-Sep-17 04:00N 40°48' E 024°42'4 7.0
2017-Sep-17 03:30N 40°51' E 024°42'0 0.0
2017-Sep-17 03:01N 40°51' E 024°42'3 5.6
2017-Sep-17 02:30N 40°49' E 024°42'2 3.7
2017-Sep-17 02:00N 40°47' E 024°42'0 0.0
2017-Sep-16 20:42N 40°47' E 024°42'1 7.8
2017-Sep-16 20:30N 40°48' E 024°42'3 6.4
2017-Sep-16 20:00N 40°51' E 024°42'0 0.0
2017-Sep-16 19:30N 40°51' E 024°42'3 5.2
2017-Sep-16 19:00N 40°49' E 024°41'2 4.3
2017-Sep-16 18:30N 40°47' E 024°42'0 0.0
2017-Sep-16 18:00N 40°47' E 024°42'0 0.1
2017-Sep-16 17:30N 40°47' E 024°42'0 0.0
2017-Sep-16 17:00N 40°47' E 024°42'0 0.0
2017-Sep-16 16:30N 40°47' E 024°42'3 6.9
2017-Sep-16 16:00N 40°50' E 024°41'1 2.9
2017-Sep-16 15:30N 40°51' E 024°42'1 1.8
2017-Sep-16 15:00N 40°51' E 024°41'5 9.1
2017-Sep-16 14:30N 40°47' E 024°42'0 0.0
2017-Sep-16 14:00N 40°47' E 024°42'1 2.5
2017-Sep-16 13:30N 40°48' E 024°42'3 6.8
2017-Sep-16 13:00N 40°51' E 024°42'0 0.1
2017-Sep-16 12:30N 40°51' E 024°42'3 5.5
2017-Sep-16 12:00N 40°49' E 024°42'2 3.9
2017-Sep-16 11:30N 40°47' E 024°42'2 3.2
2017-Sep-16 11:00N 40°48' E 024°42'3 6.1
2017-Sep-16 10:30N 40°51' E 024°42'0 0.0
2017-Sep-16 10:00N 40°51' E 024°42'3 6.1
2017-Sep-16 09:30N 40°48' E 024°42'2 3.2
2017-Sep-16 09:00N 40°47' E 024°42'1 2.7
2017-Sep-16 08:30N 40°48' E 024°42'3 6.6
2017-Sep-16 08:00N 40°51' E 024°42'0 0.1
2017-Sep-16 07:30N 40°51' E 024°42'3 5.3
2017-Sep-16 07:00N 40°49' E 024°42'2 4.1
2017-Sep-16 06:30N 40°47' E 024°42'1 2.3
2017-Sep-16 06:00N 40°48' E 024°42'4 7.1
2017-Sep-16 05:30N 40°51' E 024°42'0 0.0
2017-Sep-16 05:00N 40°51' E 024°42'3 5.1
2017-Sep-16 04:30N 40°49' E 024°42'2 4.4
2017-Sep-16 04:00N 40°47' E 024°42'0 0.0
2017-Sep-16 03:30N 40°47' E 024°42'4 8.7
2017-Sep-16 03:00N 40°51' E 024°41'1 2.0
2017-Sep-16 02:30N 40°51' E 024°42'0 0.0
2017-Sep-15 18:14N 40°51' E 024°42'1 4.6
2017-Sep-15 18:00N 40°51' E 024°41'4 8.9
2017-Sep-15 17:30N 40°47' E 024°42'0 0.0
2017-Sep-15 17:00N 40°47' E 024°42'0 0.0
2017-Sep-15 16:30N 40°47' E 024°42'0 0.0
2017-Sep-15 16:00N 40°47' E 024°42'1 2.4
2017-Sep-15 15:30N 40°48' E 024°42'3 6.9
2017-Sep-15 15:00N 40°51' E 024°42'0 0.0
2017-Sep-15 14:30N 40°51' E 024°42'3 5.3
2017-Sep-15 14:00N 40°49' E 024°42'2 4.1
2017-Sep-15 13:30N 40°47' E 024°42'1 2.5
2017-Sep-15 13:00N 40°48' E 024°42'3 6.8
2017-Sep-15 12:30N 40°51' E 024°42'0 0.0
2017-Sep-15 12:00N 40°51' E 024°42'3 5.3
2017-Sep-15 11:30N 40°49' E 024°41'2 4.4
2017-Sep-15 11:00N 40°47' E 024°42'1 2.5
2017-Sep-15 10:30N 40°48' E 024°42'3 6.8
2017-Sep-15 10:00N 40°51' E 024°42'0 0.1
2017-Sep-15 09:30N 40°51' E 024°42'3 5.4
2017-Sep-15 09:00N 40°49' E 024°42'2 4.1
2017-Sep-15 08:30N 40°47' E 024°42'1 2.4
2017-Sep-15 08:00N 40°48' E 024°42'3 6.9
2017-Sep-15 07:30N 40°51' E 024°42'0 0.0
2017-Sep-15 07:00N 40°51' E 024°42'3 5.5
2017-Sep-15 06:30N 40°49' E 024°42'2 3.8
2017-Sep-15 06:00N 40°47' E 024°42'1 2.9
2017-Sep-15 05:30N 40°48' E 024°42'3 6.5
2017-Sep-15 05:00N 40°51' E 024°42'0 0.0
2017-Sep-15 04:30N 40°51' E 024°42'3 5.2
2017-Sep-15 04:00N 40°49' E 024°42'2 4.2
2017-Sep-15 03:30N 40°47' E 024°42'0 0.0
2017-Sep-15 03:00N 40°47' E 024°42'4 8.3
2017-Sep-15 02:30N 40°51' E 024°41'1 2.4
2017-Sep-15 02:00N 40°51' E 024°42'0 0.1
2017-Sep-15 01:30N 40°51' E 024°42'0 0.0
2017-Sep-14 20:31N 40°51' E 024°42'0 0.0
2017-Sep-14 20:30N 40°51' E 024°42'0 0.1
2017-Sep-14 20:00N 40°51' E 024°42'3 5.5
2017-Sep-14 19:30N 40°49' E 024°42'0 0.3
2017-Sep-14 19:00N 40°49' E 024°42'3 5.9
2017-Sep-14 18:30N 40°51' E 024°42'0 0.0
2017-Sep-14 18:00N 40°51' E 024°42'0 0.0
2017-Sep-14 17:30N 40°51' E 024°42'3 5.3
2017-Sep-14 17:00N 40°49' E 024°41'2 4.2
2017-Sep-14 16:30N 40°47' E 024°42'0 0.0
2017-Sep-14 16:00N 40°47' E 024°42'0 0.0
2017-Sep-14 15:30N 40°47' E 024°42'1 2.4
2017-Sep-14 15:00N 40°48' E 024°42'3 6.9
2017-Sep-14 14:30N 40°51' E 024°42'0 0.0
2017-Sep-14 14:00N 40°51' E 024°42'3 5.4
2017-Sep-14 13:30N 40°49' E 024°41'2 4.3
2017-Sep-14 13:00N 40°47' E 024°42'1 2.5
2017-Sep-14 12:30N 40°48' E 024°42'3 6.8
2017-Sep-14 12:00N 40°51' E 024°42'0 0.0
2017-Sep-14 11:30N 40°51' E 024°42'3 5.5
2017-Sep-14 11:00N 40°49' E 024°41'2 4.2
2017-Sep-14 10:30N 40°47' E 024°42'1 2.6
2017-Sep-14 10:00N 40°48' E 024°42'3 6.8
2017-Sep-14 09:30N 40°51' E 024°42'0 0.0
2017-Sep-14 09:00N 40°51' E 024°42'3 6.1
2017-Sep-14 08:30N 40°48' E 024°42'2 3.3
2017-Sep-14 08:00N 40°47' E 024°42'1 2.3
2017-Sep-14 07:30N 40°48' E 024°42'4 7.1
2017-Sep-14 07:00N 40°51' E 024°42'0 0.1
2017-Sep-14 06:30N 40°51' E 024°42'3 5.3
2017-Sep-14 06:00N 40°49' E 024°42'2 4.2
2017-Sep-14 05:30N 40°47' E 024°42'2 3.1
2017-Sep-14 05:00N 40°48' E 024°42'3 6.3
2017-Sep-14 04:30N 40°51' E 024°42'0 0.0
2017-Sep-14 04:00N 40°51' E 024°42'3 5.4
2017-Sep-14 03:30N 40°49' E 024°42'2 4.0
2017-Sep-14 03:00N 40°47' E 024°42'0 0.0
2017-Sep-14 02:30N 40°47' E 024°42'0 0.0
2017-Sep-13 17:56N 40°47' E 024°42'4 8.6
2017-Sep-13 17:30N 40°50' E 024°41'1 2.5
2017-Sep-13 17:00N 40°51' E 024°42'1 1.9
2017-Sep-13 16:30N 40°51' E 024°41'5 9.0
2017-Sep-13 16:00N 40°47' E 024°42'0 0.0
2017-Sep-13 15:30N 40°47' E 024°42'0 0.0
2017-Sep-13 15:00N 40°47' E 024°42'1 2.5
2017-Sep-13 14:30N 40°48' E 024°42'3 6.8
2017-Sep-13 14:00N 40°51' E 024°42'0 0.0
2017-Sep-13 13:30N 40°51' E 024°42'3 5.2
2017-Sep-13 13:00N 40°49' E 024°42'2 4.3
2017-Sep-13 12:30N 40°47' E 024°42'1 2.9
2017-Sep-13 12:00N 40°48' E 024°42'3 6.5
2017-Sep-13 11:30N 40°51' E 024°42'0 0.0
2017-Sep-13 11:00N 40°51' E 024°42'3 5.4
2017-Sep-13 10:30N 40°49' E 024°42'2 4.0
2017-Sep-13 10:00N 40°47' E 024°42'2 3.2
2017-Sep-13 09:30N 40°48' E 024°42'3 6.1
2017-Sep-13 09:00N 40°51' E 024°42'0 0.1
2017-Sep-13 08:30N 40°51' E 024°42'3 5.4
2017-Sep-13 08:00N 40°49' E 024°42'2 4.0
2017-Sep-13 07:30N 40°47' E 024°42'2 3.3
2017-Sep-13 07:00N 40°48' E 024°42'3 6.1
2017-Sep-13 06:30N 40°51' E 024°42'0 0.0
2017-Sep-13 06:00N 40°51' E 024°42'2 4.9
2017-Sep-13 05:30N 40°49' E 024°42'2 4.5
2017-Sep-13 05:00N 40°47' E 024°42'1 2.7
2017-Sep-13 04:30N 40°48' E 024°42'3 6.6
2017-Sep-13 04:00N 40°51' E 024°42'0 0.0
2017-Sep-13 03:30N 40°51' E 024°42'0 0.0
2017-Sep-12 20:52N 40°51' E 024°42'1 3.1
2017-Sep-12 20:30N 40°51' E 024°41'4 8.4
2017-Sep-12 20:01N 40°47' E 024°42'0 0.0
2017-Sep-12 19:30N 40°47' E 024°42'0 0.0
2017-Sep-12 19:01N 40°47' E 024°42'0 0.0
2017-Sep-12 18:30N 40°47' E 024°42'0 0.0
2017-Sep-12 18:00N 40°47' E 024°42'0 0.0
2017-Sep-12 17:31N 40°47' E 024°42'1 2.5
2017-Sep-12 17:01N 40°48' E 024°42'3 6.8
2017-Sep-12 16:31N 40°51' E 024°42'0 0.0
2017-Sep-12 16:00N 40°51' E 024°42'3 5.0
2017-Sep-12 15:30N 40°49' E 024°42'2 4.4
2017-Sep-12 15:00N 40°47' E 024°42'0 0.0
2017-Sep-12 14:31N 40°47' E 024°42'1 2.3
2017-Sep-12 14:01N 40°48' E 024°42'4 7.0
2017-Sep-12 13:30N 40°51' E 024°42'0 0.0
2017-Sep-12 13:01N 40°51' E 024°42'3 5.5
2017-Sep-12 12:30N 40°49' E 024°42'2 4.0
2017-Sep-12 12:00N 40°47' E 024°42'1 2.6
2017-Sep-12 11:30N 40°48' E 024°42'3 6.8
2017-Sep-12 11:01N 40°51' E 024°42'0 0.0
2017-Sep-12 10:30N 40°51' E 024°42'3 5.4
2017-Sep-12 10:00N 40°49' E 024°42'2 4.1
2017-Sep-12 09:31N 40°47' E 024°42'2 3.1
2017-Sep-12 09:01N 40°48' E 024°41'3 6.6
2017-Sep-12 08:30N 40°51' E 024°42'0 0.1
2017-Sep-12 08:00N 40°51' E 024°42'3 6.6
2017-Sep-12 07:30N 40°48' E 024°42'1 2.8
2017-Sep-12 07:00N 40°47' E 024°42'2 3.0
2017-Sep-12 06:30N 40°48' E 024°41'3 6.6
2017-Sep-12 06:01N 40°51' E 024°42'0 0.0
2017-Sep-12 05:31N 40°51' E 024°42'2 4.9
2017-Sep-12 05:01N 40°49' E 024°42'2 4.5
2017-Sep-12 04:31N 40°47' E 024°42'1 2.7
2017-Sep-12 04:01N 40°48' E 024°42'3 6.6
2017-Sep-12 03:30N 40°51' E 024°42'0 0.0
2017-Sep-12 03:00N 40°51' E 024°42'3 5.4
2017-Sep-12 02:31N 40°49' E 024°42'2 4.0
2017-Sep-12 02:01N 40°47' E 024°42'0 0.0
2017-Sep-11 20:46N 40°47' E 024°42'2 7.3
2017-Sep-11 20:30N 40°49' E 024°42'3 5.5
2017-Sep-11 20:00N 40°51' E 024°42'0 0.0
2017-Sep-11 19:30N 40°51' E 024°42'3 5.2
2017-Sep-11 19:00N 40°49' E 024°42'2 4.3
2017-Sep-11 18:30N 40°47' E 024°42'0 0.0
2017-Sep-11 18:00N 40°47' E 024°42'0 0.0
2017-Sep-11 17:30N 40°47' E 024°42'0 0.0
2017-Sep-11 17:00N 40°47' E 024°42'0 0.0
2017-Sep-11 16:30N 40°47' E 024°42'4 7.6
2017-Sep-11 16:00N 40°51' E 024°41'1 2.5
2017-Sep-11 15:30N 40°51' E 024°42'1 1.8
2017-Sep-11 15:00N 40°51' E 024°41'4 9.0
2017-Sep-11 14:30N 40°47' E 024°42'0 0.0
2017-Sep-11 14:00N 40°47' E 024°42'1 2.3
2017-Sep-11 13:30N 40°48' E 024°42'3 7.0
2017-Sep-11 13:00N 40°51' E 024°42'0 0.0
2017-Sep-11 12:30N 40°51' E 024°42'3 5.4
2017-Sep-11 12:00N 40°49' E 024°42'2 4.1
2017-Sep-11 11:30N 40°47' E 024°42'1 2.3
2017-Sep-11 11:00N 40°48' E 024°42'3 7.0
2017-Sep-11 10:30N 40°51' E 024°42'0 0.0
2017-Sep-11 10:00N 40°51' E 024°42'3 5.6
2017-Sep-11 09:30N 40°49' E 024°42'2 3.8
2017-Sep-11 09:00N 40°47' E 024°42'1 2.3
2017-Sep-11 08:30N 40°48' E 024°42'3 7.0
2017-Sep-11 08:00N 40°51' E 024°42'0 0.0
2017-Sep-11 07:30N 40°51' E 024°42'3 6.3
2017-Sep-11 07:00N 40°48' E 024°42'2 3.1
2017-Sep-11 06:30N 40°47' E 024°42'1 2.5
2017-Sep-11 06:00N 40°48' E 024°42'3 6.8
2017-Sep-11 05:30N 40°51' E 024°42'0 0.0
2017-Sep-11 05:00N 40°51' E 024°42'3 5.4
2017-Sep-11 04:30N 40°49' E 024°42'2 4.0
2017-Sep-11 04:00N 40°47' E 024°42'0 0.0
2017-Sep-11 03:30N 40°47' E 024°42'4 8.9
2017-Sep-11 03:00N 40°51' E 024°41'1 2.3
2017-Sep-11 02:30N 40°51' E 024°42'2 4.6
2017-Sep-11 02:00N 40°49' E 024°41'1 1.6
2017-Sep-11 01:30N 40°48' E 024°42'3 6.0
2017-Sep-11 01:00N 40°51' E 024°42'0 0.0
2017-Sep-10 18:27N 40°51' E 024°42'1 2.3
2017-Sep-10 18:00N 40°51' E 024°41'5 9.2
2017-Sep-10 17:30N 40°47' E 024°42'0 0.0
2017-Sep-10 17:00N 40°47' E 024°42'0 0.0
2017-Sep-10 16:30N 40°47' E 024°42'0 0.0
2017-Sep-10 16:00N 40°47' E 024°42'1 2.2
2017-Sep-10 15:30N 40°48' E 024°42'4 7.1
2017-Sep-10 15:00N 40°51' E 024°42'3 2.6
2017-Sep-10 14:00N 40°49' E 024°42'2 4.0
2017-Sep-10 13:29N 40°47' E 024°42'1 2.7
2017-Sep-10 13:00N 40°48' E 024°42'3 6.8
2017-Sep-10 12:30N 40°51' E 024°42'0 0.0
2017-Sep-10 12:00N 40°51' E 024°42'3 5.4
2017-Sep-10 11:30N 40°49' E 024°42'2 4.0
2017-Sep-10 11:00N 40°47' E 024°42'1 2.3
2017-Sep-10 10:30N 40°48' E 024°42'4 7.0
2017-Sep-10 10:00N 40°51' E 024°42'0 0.0
2017-Sep-10 09:30N 40°51' E 024°42'3 5.0
2017-Sep-10 09:00N 40°49' E 024°42'2 4.5
2017-Sep-10 08:30N 40°47' E 024°42'1 2.7
2017-Sep-10 08:00N 40°48' E 024°42'3 6.6
2017-Sep-10 07:30N 40°51' E 024°42'0 0.1
2017-Sep-10 07:00N 40°51' E 024°42'3 6.7
2017-Sep-10 06:30N 40°48' E 024°42'1 2.6
2017-Sep-10 06:00N 40°47' E 024°42'1 2.6
2017-Sep-10 05:30N 40°48' E 024°42'3 6.7
2017-Sep-10 05:00N 40°51' E 024°42'0 0.0
2017-Sep-10 04:30N 40°51' E 024°42'3 5.6
2017-Sep-10 04:00N 40°49' E 024°42'2 3.7
2017-Sep-10 03:30N 40°47' E 024°42'0 0.0
2017-Sep-09 19:34N 40°47' E 024°42'0 0.0
2017-Sep-09 19:30N 40°47' E 024°42'1 2.8
2017-Sep-09 19:00N 40°48' E 024°42'3 6.5
2017-Sep-09 18:30N 40°51' E 024°42'0 0.0
2017-Sep-09 18:00N 40°51' E 024°42'0 0.0
2017-Sep-09 17:30N 40°51' E 024°42'3 5.1
2017-Sep-09 17:00N 40°49' E 024°42'2 4.3
2017-Sep-09 16:30N 40°47' E 024°42'0 0.0
2017-Sep-09 16:00N 40°47' E 024°42'0 0.0
2017-Sep-09 15:30N 40°47' E 024°42'1 2.9
2017-Sep-09 15:00N 40°48' E 024°42'3 6.4
2017-Sep-09 14:30N 40°51' E 024°42'0 0.0
2017-Sep-09 14:00N 40°51' E 024°42'  

Dump ship's entire track history